Latest Weather Observations for Padthaway

IDS60801

Issued at 8:41 pm CDT Sunday 24 January 2021 (issued every 10 minutes, with the page automatically refreshed every 10 minutes)

About weather observations | Map of weather stations | Latest weather observations for SA | Other Formats
Station Details ID: 026100 Name: PADTHAWAY SOUTH Lat: -36.65 Lon: 140.52 Height: 37.0 m
Data from the previous 72 hours. | See also: Recent months at Padthaway
Date/Time
CDT
Temp
°C
App
Temp
°C
Dew
Point
°C
Rel
Hum
%
Delta-T
°C
Wind Press
QNH
hPa
Press
MSL
hPa
Rain since
9am
mm
Dir  Spd
km/h
Gust
km/h
Spd
kts
Gust
kts
24/08:30pm 33.9 30.1 -0.7 11 16.8 WSW 9 13 5 7 - - 0.0
24/08:00pm 36.1 31.0 -1.7 9 18.3 W 15 22 8 12 - - 0.0
24/07:30pm 37.3 32.5 -2.4 8 19.2 WSW 13 20 7 11 - - 0.0
24/07:00pm 39.0 33.4 -3.0 7 20.3 W 17 26 9 14 - - 0.0
24/06:30pm 40.1 34.0 -2.2 7 20.9 W 20 32 11 17 - - 0.0
24/06:00pm 41.5 35.3 -3.3 6 21.9 W 20 32 11 17 - - 0.0
24/05:30pm 42.1 36.9 -2.9 6 22.2 NW 15 22 8 12 - - 0.0
24/05:00pm 41.0 35.6 -1.6 7 21.3 NNW 17 24 9 13 - - 0.0
24/04:30pm 41.7 35.5 -3.1 6 22.0 NW 20 32 11 17 - - 0.0
24/04:00pm 41.1 36.1 -1.5 7 21.4 NNW 15 24 8 13 - - 0.0
24/03:30pm 41.4 34.8 -3.4 6 21.9 N 22 33 12 18 - - 0.0
24/03:00pm 41.8 36.6 -3.1 6 22.1 NNW 15 26 8 14 - - 0.0
24/02:30pm 41.9 37.2 0.9 8 21.4 NNW 15 30 8 16 - - 0.0
24/02:00pm 41.2 35.2 -1.4 7 21.4 NNW 20 28 11 15 - - 0.0
24/01:30pm 38.7 33.4 1.6 10 19.2 NNE 19 32 10 17 - - 0.0
24/01:00pm 38.3 32.0 1.3 10 19.1 N 24 33 13 18 - - 0.0
24/12:30pm 37.3 32.0 3.1 12 18.0 NNE 20 32 11 17 - - 0.0
24/12:00pm 37.0 31.7 5.1 14 17.3 NNE 22 35 12 19 - - 0.0
24/11:30am 35.1 29.9 5.5 16 16.0 NNE 22 32 12 17 - - 0.0
24/11:00am 34.7 29.4 6.9 18 15.3 NNE 24 37 13 20 - - 0.0
24/10:30am 32.6 27.9 9.4 24 13.2 NE 24 37 13 20 - - 0.0
24/10:00am 31.4 27.2 9.6 26 12.3 NE 22 35 12 19 - - 0.0
24/09:30am 29.4 25.7 10.0 30 10.9 NE 20 28 11 15 - - 0.0
24/09:00am 28.1 24.1 10.3 33 10.0 NE 22 33 12 18 - - 0.0
24/08:30am 26.6 22.9 10.3 36 9.1 NE 20 33 11 18 - - 0.0
24/08:00am 25.5 21.9 10.5 39 8.4 NE 20 28 11 15 - - 0.0
24/07:30am 24.8 21.3 10.3 40 8.0 ENE 19 28 10 15 - - 0.0
24/07:00am 24.4 20.7 10.3 41 7.8 ENE 20 32 11 17 - - 0.0
24/06:30am 24.1 20.4 10.0 41 7.7 ENE 20 32 11 17 - - 0.0
24/06:00am 23.6 21.3 10.6 44 7.2 ENE 13 19 7 10 - - 0.0
24/05:30am 23.8 21.2 10.8 44 7.2 ENE 15 22 8 12 - - 0.0
24/05:00am 23.8 22.0 10.8 44 7.2 ENE 11 19 6 10 - - 0.0
24/04:30am 24.1 21.6 11.1 44 7.3 ENE 15 22 8 12 - - 0.0
24/04:00am 23.8 20.6 11.2 45 7.1 ENE 19 26 10 14 - - 0.0
24/03:30am 24.4 21.6 11.4 44 7.3 ENE 17 26 9 14 - - 0.0
24/03:00am 24.2 21.4 11.5 45 7.2 ENE 17 26 9 14 - - 0.0
24/02:30am 24.2 21.4 11.5 45 7.2 ENE 17 24 9 13 - - 0.0
24/02:00am 24.4 22.5 11.7 45 7.2 ENE 13 19 7 10 - - 0.0
24/01:30am 24.4 23.2 11.7 45 7.2 E 9 15 5 8 - - 0.0
24/01:00am 25.0 23.1 11.9 44 7.5 E 13 19 7 10 - - 0.0
24/12:30am 23.1 21.4 11.2 47 6.6 SE 11 13 6 7 - - 0.0
24/12:00am 21.8 19.6 10.9 50 6.0 SE 13 15 7 8 - - 0.0
 
Date/Time
CDT
Temp
°C
App
Temp
°C
Dew
Point
°C
Rel
Hum
%
Delta-T
°C
Wind Press
QNH
hPa
Press
MSL
hPa
Rain since
9am
mm
Dir  Spd
km/h
Gust
km/h
Spd
kts
Gust
kts
23/11:30pm 20.2 18.7 10.6 54 5.2 SE 9 11 5 6 - - 0.0
23/11:00pm 21.2 19.3 10.4 50 5.9 SSE 11 11 6 6 - - 0.0
23/10:30pm 21.7 19.7 10.2 48 6.3 SE 11 13 6 7 - - 0.0
23/10:00pm 23.1 21.4 9.8 43 7.2 SE 9 11 5 6 - - 0.0
23/09:30pm 24.8 22.9 9.1 37 8.5 SSE 9 11 5 6 - - 0.0
23/09:00pm 27.8 24.9 8.1 29 10.7 S 13 17 7 9 - - 0.0
23/08:30pm 28.3 26.5 9.6 31 10.4 S 9 13 5 7 - - 0.0
23/08:00pm 31.2 29.1 8.2 24 12.7 S 9 13 5 7 - - 0.0
23/07:30pm 32.3 29.7 7.9 22 13.5 SSW 11 17 6 9 - - 0.0
23/07:00pm 32.4 29.7 7.3 21 13.8 SSW 11 17 6 9 - - 0.0
23/06:30pm 33.3 29.9 5.8 18 14.8 SW 13 20 7 11 - - 0.0
23/06:00pm 34.7 31.1 5.2 16 15.8 SSW 13 24 7 13 - - 0.0
23/05:30pm 35.3 31.5 5.7 16 16.1 WSW 15 22 8 12 - - 0.0
23/05:00pm 35.7 32.3 6.0 16 16.2 SW 13 22 7 12 - - 0.0
23/04:30pm 35.3 31.5 5.7 16 16.1 W 15 20 8 11 - - 0.0
23/04:00pm 35.3 32.0 6.6 17 15.8 WSW 13 20 7 11 - - 0.0
23/03:30pm 35.0 31.1 5.4 16 16.0 WSW 15 28 8 15 - - 0.0
23/03:00pm 34.9 31.4 5.4 16 15.9 W 13 20 7 11 - - 0.0
23/02:30pm 34.1 30.6 5.6 17 15.3 SW 13 22 7 12 - - 0.0
23/02:00pm 33.6 29.8 6.0 18 14.9 WNW 15 26 8 14 - - 0.0
23/01:30pm 33.2 29.9 6.5 19 14.5 WNW 13 20 7 11 - - 0.0
23/01:00pm 32.5 29.5 5.9 19 14.3 NW 11 17 6 9 - - 0.0
23/12:30pm 30.7 27.9 5.2 20 13.4 NNW 9 17 5 9 - - 0.0
23/12:00pm 30.0 27.9 6.6 23 12.5 N 7 15 4 8 - - 0.0
23/11:30am 29.3 27.3 7.2 25 11.9 NNE 7 15 4 8 - - 0.0
23/11:00am 28.1 26.1 6.2 25 11.5 NNW 6 13 3 7 - - 0.0
23/10:30am 26.1 24.7 7.2 30 10.0 WSW 4 9 2 5 - - 0.0
23/10:00am 24.6 23.7 9.3 38 8.3 E 4 9 2 5 - - 0.0
23/09:30am 22.4 22.3 10.9 48 6.4 N 2 7 1 4 - - 0.0
23/09:00am 20.5 20.4 12.0 58 4.8 SW 4 7 2 4 - - 0.0
23/08:30am 18.3 18.1 11.8 66 3.6 SW 4 7 2 4 - - 0.0
23/08:00am 15.8 16.2 11.4 75 2.4 CALM 0 0 0 0 - - 0.0
23/07:30am 13.7 12.9 11.0 84 1.4 SE 6 9 3 5 - - 0.0
23/07:00am 11.7 10.4 10.1 90 0.8 SE 7 9 4 5 - - 0.0
23/06:30am 10.6 9.1 9.2 91 0.7 SSE 7 9 4 5 - - 0.0
23/06:00am 10.8 9.3 9.2 90 0.8 SSE 7 9 4 5 - - 0.0
23/05:30am 10.9 9.4 9.3 90 0.8 SE 7 7 4 4 - - 0.0
23/05:00am 11.2 9.4 9.5 89 0.9 SE 9 11 5 6 - - 0.0
23/04:30am 11.4 10.0 9.7 89 0.9 ESE 7 9 4 5 - - 0.0
23/04:00am 11.7 10.0 9.8 88 1.0 SE 9 11 5 6 - - 0.0
23/03:30am 11.9 10.5 9.6 86 1.2 SE 7 9 4 5 - - 0.0
23/03:00am 12.4 10.8 10.1 86 1.2 SE 9 9 5 5 - - 0.0
23/02:30am 12.7 11.1 10.1 84 1.3 SSE 9 11 5 6 - - 0.0
23/02:00am 13.5 12.3 10.3 81 1.7 S 7 7 4 4 - - 0.0
23/01:30am 13.9 12.8 10.5 80 1.8 SSE 7 9 4 5 - - 0.0
23/01:00am 14.2 13.0 10.2 77 2.1 S 7 9 4 5 - - 0.0
23/12:30am 15.1 14.0 10.1 72 2.6 SSW 6 7 3 4 - - 0.0
23/12:00am 16.1 14.6 10.4 69 3.0 SSW 9 11 5 6 - - 0.0
 
Date/Time
CDT
Temp
°C
App
Temp
°C
Dew
Point
°C
Rel
Hum
%
Delta-T
°C
Wind Press
QNH
hPa
Press
MSL
hPa
Rain since
9am
mm
Dir  Spd
km/h
Gust
km/h
Spd
kts
Gust
kts
22/11:30pm 16.4 15.1 10.0 66 3.4 S 7 11 4 6 - - 0.0
22/11:00pm 17.5 15.9 10.1 62 3.9 S 9 13 5 7 - - 0.0
22/10:30pm 18.0 15.9 9.9 59 4.3 SSW 11 15 6 8 - - 0.0
22/10:00pm 18.4 16.5 9.2 55 4.8 SSW 9 13 5 7 - - 0.0
22/09:30pm 19.5 17.6 9.1 51 5.5 SSW 9 13 5 7 - - 0.0
22/09:00pm 20.7 18.7 8.7 46 6.3 SW 9 13 5 7 - - 0.0
22/08:30pm 22.2 19.3 8.3 41 7.3 SW 13 19 7 10 - - 0.0
22/08:00pm 24.0 20.8 6.7 33 9.0 SW 13 20 7 11 - - 0.0
22/07:30pm 25.5 21.6 7.1 31 9.7 SSW 17 24 9 13 - - 0.0
22/07:00pm 27.3 23.3 6.7 27 10.9 SSW 17 28 9 15 - - 0.0
22/06:30pm 28.7 24.1 3.5 20 12.7 SW 17 24 9 13 - - 0.0
22/06:00pm 29.2 24.3 1.7 17 13.5 SW 17 26 9 14 - - 0.0
22/05:30pm 30.3 25.6 0.8 15 14.3 WSW 15 22 8 12 - - 0.0
22/05:00pm 30.2 25.2 1.6 16 14.1 WSW 17 30 9 16 - - 0.0
22/04:30pm 30.3 25.7 1.7 16 14.1 WSW 15 22 8 12 - - 0.0
22/04:00pm 29.6 25.6 2.8 18 13.4 WSW 13 20 7 11 - - 0.0
22/03:30pm 29.2 24.5 3.2 19 13.1 SSW 17 26 9 14 - - 0.0
22/03:00pm 29.7 25.0 2.9 18 13.4 SW 17 24 9 13 - - 0.0
22/02:30pm 29.3 25.0 5.4 22 12.5 SSW 17 26 9 14 - - 0.0
22/02:00pm 28.7 25.2 5.5 23 12.1 WSW 13 20 7 11 - - 0.0
22/01:30pm 28.3 24.0 5.2 23 12.0 SW 17 26 9 14 - - 0.0
22/01:00pm 26.8 22.8 5.1 25 11.1 SW 15 20 8 11 - - 0.0
22/12:30pm 26.7 22.6 4.5 24 11.2 SW 15 22 8 12 - - 0.0
22/12:00pm 26.0 22.2 3.9 24 11.0 SW 13 24 7 13 - - 0.0
22/11:30am 24.8 21.3 5.6 29 9.8 SSW 13 20 7 11 - - 0.0
22/11:00am 22.2 19.9 9.0 43 7.1 WSW 11 17 6 9 - - 0.0
22/10:30am 19.8 17.8 10.0 53 5.3 W 11 17 6 9 - - 0.0
22/10:00am 17.3 15.8 10.4 64 3.7 WSW 9 15 5 8 - - 0.0
22/09:30am 15.5 15.1 14.0 91 0.8 WNW 9 15 5 8 - - 0.0
22/09:00am 13.6 13.3 13.4 99 0.1 SW 7 13 4 7 - - 0.0
22/08:30am 12.9 12.4 12.7 99 0.1 W 7 11 4 6 - - 0.0
22/08:00am 12.5 11.5 12.3 99 0.1 SW 9 13 5 7 - - 0.0
22/07:30am 12.3 11.6 12.1 99 0.1 WSW 7 9 4 5 - - 0.0
22/07:00am 12.4 11.8 12.2 99 0.1 SW 7 11 4 6 - - 0.0
22/06:30am 12.4 11.9 12.2 99 0.1 S 6 11 3 6 - - 0.0
22/06:00am 12.4 11.9 12.2 99 0.1 WSW 6 7 3 4 - - 0.0
22/05:30am 12.3 10.9 12.1 99 0.1 SSW 11 15 6 8 - - 0.0
22/05:00am 12.5 12.4 12.2 98 0.2 SW 4 6 2 3 - - 0.0
22/04:30am 12.6 12.8 12.0 96 0.3 SW 2 9 1 5 - - 0.0
22/04:00am 12.3 12.7 11.4 94 0.5 CALM 0 6 0 3 - - 0.0
22/03:30am 11.8 12.0 10.4 91 0.7 CALM 0 0 0 0 - - 0.0
22/03:00am 11.8 11.8 9.7 87 1.1 CALM 0 2 0 1 - - 0.0
22/02:30am 9.4 7.5 6.8 84 1.2 SSW 6 6 3 3 - - 0.0
22/02:00am 9.8 9.1 6.9 82 1.4 CALM 0 6 0 3 - - 0.0
22/01:30am 10.5 8.6 6.8 78 1.7 SSW 6 7 3 4 - - 0.0
22/01:00am 11.7 10.0 7.6 76 2.0 S 6 7 3 4 - - 0.0
22/12:30am 13.3 11.3 8.8 74 2.3 SSW 9 11 5 6 - - 0.0
22/12:00am 14.0 12.0 8.6 70 2.7 SSW 9 13 5 7 - - 0.0
 
Date/Time
CDT
Temp
°C
App
Temp
°C
Dew
Point
°C
Rel
Hum
%
Delta-T
°C
Wind Press
QNH
hPa
Press
MSL
hPa
Rain since
9am
mm
Dir  Spd
km/h
Gust
km/h
Spd
kts
Gust
kts
21/11:30pm 13.5 11.8 6.1 61 3.5 SW 4 7 2 4 - - 0.0
21/11:00pm 15.6 12.9 5.8 52 4.7 SW 9 11 5 6 - - 0.0
21/10:30pm 16.5 13.8 5.5 48 5.3 SW 9 13 5 7 - - 0.0
21/10:00pm 18.1 15.6 4.7 41 6.4 SSW 7 11 4 6 - - 0.0
21/09:30pm 19.6 16.4 3.3 34 7.7 SW 9 11 5 6 - - 0.0
21/09:00pm 20.6 17.4 3.3 32 8.2 SW 9 13 5 7 - - 0.0

Other formats

Comma delimited format used in spreadsheet applications
http://www.bom.gov.au/fwo/IDS60801/IDS60801.95823.axf

JavaScript Object Notation format (JSON) in row-major order
http://www.bom.gov.au/fwo/IDS60801/IDS60801.95823.json

Data quality

Most of these data are generated automatically and are frequently updated. Quality checks on data are not normally performed. It is possible for incorrect values to appear. Refer to information at About Latest Weather Observations and please check the disclaimer before using these data.